sensor_id;sensor_type;location;lat;lon;timestamp;pressure;altitude;pressure_sealevel;temperature;humidity
68948;BME280;55996;49.546;7.400;2023-07-02T00:00:51;98045.94;;;18.58;75.08
68948;BME280;55996;49.546;7.400;2023-07-02T00:03:17;98058.09;;;18.49;75.97
68948;BME280;55996;49.546;7.400;2023-07-02T00:05:47;98053.53;;;18.51;75.60
68948;BME280;55996;49.546;7.400;2023-07-02T00:08:15;98053.16;;;18.55;74.92
68948;BME280;55996;49.546;7.400;2023-07-02T00:10:40;98059.91;;;18.60;75.61
68948;BME280;55996;49.546;7.400;2023-07-02T00:13:06;98065.75;;;18.41;75.58
68948;BME280;55996;49.546;7.400;2023-07-02T00:15:32;98060.59;;;18.50;75.42
68948;BME280;55996;49.546;7.400;2023-07-02T00:17:57;98049.56;;;18.57;74.96
68948;BME280;55996;49.546;7.400;2023-07-02T00:20:22;98051.84;;;18.61;75.14
68948;BME280;55996;49.546;7.400;2023-07-02T00:22:48;98058.59;;;18.65;75.47
68948;BME280;55996;49.546;7.400;2023-07-02T00:25:14;98067.06;;;18.70;74.40
68948;BME280;55996;49.546;7.400;2023-07-02T00:27:40;98059.09;;;18.70;73.87
68948;BME280;55996;49.546;7.400;2023-07-02T00:30:06;98047.50;;;18.49;74.36
68948;BME280;55996;49.546;7.400;2023-07-02T00:32:32;98049.94;;;18.52;73.93
68948;BME280;55996;49.546;7.400;2023-07-02T00:34:57;98057.59;;;18.44;74.38
68948;BME280;55996;49.546;7.400;2023-07-02T00:37:24;98060.25;;;18.44;74.33
68948;BME280;55996;49.546;7.400;2023-07-02T00:39:49;98055.88;;;18.31;74.48
68948;BME280;55996;49.546;7.400;2023-07-02T00:42:15;98057.28;;;18.24;73.57
68948;BME280;55996;49.546;7.400;2023-07-02T00:44:41;98063.31;;;18.26;74.34
68948;BME280;55996;49.546;7.400;2023-07-02T00:47:10;98052.16;;;18.10;74.42
68948;BME280;55996;49.546;7.400;2023-07-02T00:49:36;98047.41;;;18.15;74.31
68948;BME280;55996;49.546;7.400;2023-07-02T00:52:02;98048.06;;;18.05;74.60
68948;BME280;55996;49.546;7.400;2023-07-02T00:54:28;98040.38;;;18.02;74.19
68948;BME280;55996;49.546;7.400;2023-07-02T00:56:54;98053.78;;;18.12;73.69
68948;BME280;55996;49.546;7.400;2023-07-02T00:59:20;98052.13;;;17.98;74.21
68948;BME280;55996;49.546;7.400;2023-07-02T01:01:46;98054.88;;;17.97;73.62
68948;BME280;55996;49.546;7.400;2023-07-02T01:04:17;98059.75;;;17.90;73.26
68948;BME280;55996;49.546;7.400;2023-07-02T01:06:43;98068.75;;;17.63;73.73
68948;BME280;55996;49.546;7.400;2023-07-02T01:09:09;98053.50;;;17.91;71.70
68948;BME280;55996;49.546;7.400;2023-07-02T01:14:14;98038.44;;;18.04;69.89
68948;BME280;55996;49.546;7.400;2023-07-02T01:16:44;98068.50;;;18.03;70.04
68948;BME280;55996;49.546;7.400;2023-07-02T01:19:18;98080.31;;;17.86;68.96
68948;BME280;55996;49.546;7.400;2023-07-02T01:21:46;98071.88;;;17.68;71.14
68948;BME280;55996;49.546;7.400;2023-07-02T01:24:13;98065.28;;;17.50;71.79
68948;BME280;55996;49.546;7.400;2023-07-02T01:26:39;98068.44;;;17.55;72.75
68948;BME280;55996;49.546;7.400;2023-07-02T01:29:19;98076.78;;;17.62;71.40
68948;BME280;55996;49.546;7.400;2023-07-02T01:31:47;98068.25;;;17.45;70.99
68948;BME280;55996;49.546;7.400;2023-07-02T01:34:13;98075.41;;;17.69;71.13
68948;BME280;55996;49.546;7.400;2023-07-02T01:36:39;98078.03;;;17.69;70.31
68948;BME280;55996;49.546;7.400;2023-07-02T01:39:05;98073.66;;;17.43;73.43
68948;BME280;55996;49.546;7.400;2023-07-02T01:41:37;98081.13;;;17.63;69.45
68948;BME280;55996;49.546;7.400;2023-07-02T01:44:03;98078.56;;;17.61;71.71
68948;BME280;55996;49.546;7.400;2023-07-02T01:46:29;98078.13;;;17.67;70.86
68948;BME280;55996;49.546;7.400;2023-07-02T01:48:54;98074.31;;;17.71;69.95
68948;BME280;55996;49.546;7.400;2023-07-02T01:51:20;98081.84;;;17.65;70.08
68948;BME280;55996;49.546;7.400;2023-07-02T01:53:46;98085.91;;;17.82;71.92
68948;BME280;55996;49.546;7.400;2023-07-02T01:56:11;98077.41;;;17.89;69.85
68948;BME280;55996;49.546;7.400;2023-07-02T01:58:37;98088.63;;;17.93;70.45
68948;BME280;55996;49.546;7.400;2023-07-02T02:01:02;98087.13;;;18.02;69.54
68948;BME280;55996;49.546;7.400;2023-07-02T02:03:27;98088.72;;;17.91;70.32
68948;BME280;55996;49.546;7.400;2023-07-02T02:05:53;98081.31;;;17.72;71.13
68948;BME280;55996;49.546;7.400;2023-07-02T02:08:18;98090.41;;;17.68;71.58
68948;BME280;55996;49.546;7.400;2023-07-02T02:10:43;98096.97;;;17.63;71.14
68948;BME280;55996;49.546;7.400;2023-07-02T02:13:09;98086.50;;;17.61;71.71
68948;BME280;55996;49.546;7.400;2023-07-02T02:15:34;98093.72;;;17.59;71.99
68948;BME280;55996;49.546;7.400;2023-07-02T02:18:00;98112.03;;;17.49;72.88
68948;BME280;55996;49.546;7.400;2023-07-02T02:20:25;98100.38;;;17.39;73.63
68948;BME280;55996;49.546;7.400;2023-07-02T02:22:51;98098.81;;;17.49;72.44
68948;BME280;55996;49.546;7.400;2023-07-02T02:25:16;98100.06;;;17.43;73.40
68948;BME280;55996;49.546;7.400;2023-07-02T02:27:41;98101.38;;;17.38;72.55
68948;BME280;55996;49.546;7.400;2023-07-02T02:30:08;98099.34;;;17.41;73.76
68948;BME280;55996;49.546;7.400;2023-07-02T02:32:34;98100.13;;;17.68;72.08
68948;BME280;55996;49.546;7.400;2023-07-02T02:34:59;98103.50;;;17.70;71.49
68948;BME280;55996;49.546;7.400;2023-07-02T02:37:25;98092.59;;;17.74;71.62
68948;BME280;55996;49.546;7.400;2023-07-02T02:39:50;98107.75;;;17.72;71.87
68948;BME280;55996;49.546;7.400;2023-07-02T02:42:16;98099.75;;;17.48;74.29
68948;BME280;55996;49.546;7.400;2023-07-02T02:44:41;98094.78;;;17.56;73.43
68948;BME280;55996;49.546;7.400;2023-07-02T02:47:06;98109.66;;;17.70;72.27
68948;BME280;55996;49.546;7.400;2023-07-02T02:49:32;98102.72;;;17.43;73.68
68948;BME280;55996;49.546;7.400;2023-07-02T02:51:57;98110.53;;;17.58;73.38
68948;BME280;55996;49.546;7.400;2023-07-02T02:54:23;98091.28;;;17.56;72.31
68948;BME280;55996;49.546;7.400;2023-07-02T02:56:48;98099.50;;;17.64;71.93
68948;BME280;55996;49.546;7.400;2023-07-02T02:59:14;98100.59;;;17.49;73.32
68948;BME280;55996;49.546;7.400;2023-07-02T03:01:39;98108.66;;;17.34;74.61
68948;BME280;55996;49.546;7.400;2023-07-02T03:04:04;98112.03;;;17.36;74.17
68948;BME280;55996;49.546;7.400;2023-07-02T03:06:33;98100.81;;;17.33;73.45
68948;BME280;55996;49.546;7.400;2023-07-02T03:08:59;98096.22;;;17.10;75.16
68948;BME280;55996;49.546;7.400;2023-07-02T03:11:24;98101.28;;;17.14;74.80
68948;BME280;55996;49.546;7.400;2023-07-02T03:13:50;98116.50;;;17.10;75.34
68948;BME280;55996;49.546;7.400;2023-07-02T03:16:15;98111.66;;;17.17;74.86
68948;BME280;55996;49.546;7.400;2023-07-02T03:18:41;98111.00;;;17.00;75.80
68948;BME280;55996;49.546;7.400;2023-07-02T03:21:06;98117.03;;;17.02;75.07
68948;BME280;55996;49.546;7.400;2023-07-02T03:23:32;98119.84;;;16.86;76.85
68948;BME280;55996;49.546;7.400;2023-07-02T03:25:57;98122.78;;;16.82;76.42
68948;BME280;55996;49.546;7.400;2023-07-02T03:28:23;98124.69;;;16.80;77.13
68948;BME280;55996;49.546;7.400;2023-07-02T03:30:48;98118.56;;;16.79;76.39
68948;BME280;55996;49.546;7.400;2023-07-02T03:33:13;98137.09;;;16.52;78.73
68948;BME280;55996;49.546;7.400;2023-07-02T03:35:39;98119.66;;;16.49;78.34
68948;BME280;55996;49.546;7.400;2023-07-02T03:38:05;98126.63;;;16.37;79.43
68948;BME280;55996;49.546;7.400;2023-07-02T03:40:31;98123.63;;;16.29;79.00
68948;BME280;55996;49.546;7.400;2023-07-02T03:42:57;98135.41;;;16.23;79.09
68948;BME280;55996;49.546;7.400;2023-07-02T03:45:22;98134.94;;;16.31;77.65
68948;BME280;55996;49.546;7.400;2023-07-02T03:47:47;98114.84;;;16.28;77.26
68948;BME280;55996;49.546;7.400;2023-07-02T03:50:13;98137.09;;;16.11;78.07
68948;BME280;55996;49.546;7.400;2023-07-02T03:52:38;98149.25;;;16.27;78.15
68948;BME280;55996;49.546;7.400;2023-07-02T03:55:04;98144.78;;;16.14;77.87
68948;BME280;55996;49.546;7.400;2023-07-02T03:57:30;98143.09;;;16.13;78.13
68948;BME280;55996;49.546;7.400;2023-07-02T03:59:55;98147.75;;;15.95;78.94
68948;BME280;55996;49.546;7.400;2023-07-02T04:02:21;98148.47;;;16.12;78.25
68948;BME280;55996;49.546;7.400;2023-07-02T04:04:46;98156.88;;;16.04;80.06
68948;BME280;55996;49.546;7.400;2023-07-02T04:07:11;98164.56;;;16.07;79.76
68948;BME280;55996;49.546;7.400;2023-07-02T04:09:37;98172.41;;;16.09;80.04
68948;BME280;55996;49.546;7.400;2023-07-02T04:12:03;98169.66;;;16.10;81.97
68948;BME280;55996;49.546;7.400;2023-07-02T04:14:29;98173.22;;;16.24;81.01
68948;BME280;55996;49.546;7.400;2023-07-02T04:16:54;98159.63;;;16.30;79.95
68948;BME280;55996;49.546;7.400;2023-07-02T04:19:20;98176.66;;;16.39;80.71
68948;BME280;55996;49.546;7.400;2023-07-02T04:21:45;98175.34;;;16.32;80.96
68948;BME280;55996;49.546;7.400;2023-07-02T04:24:11;98173.22;;;16.24;81.53
68948;BME280;55996;49.546;7.400;2023-07-02T04:26:36;98176.50;;;16.27;81.35
68948;BME280;55996;49.546;7.400;2023-07-02T04:29:02;98177.34;;;16.28;81.52
68948;BME280;55996;49.546;7.400;2023-07-02T04:31:27;98192.22;;;16.29;82.12
68948;BME280;55996;49.546;7.400;2023-07-02T04:33:52;98176.09;;;16.34;81.82
68948;BME280;55996;49.546;7.400;2023-07-02T04:36:18;98189.44;;;16.45;81.39
68948;BME280;55996;49.546;7.400;2023-07-02T04:38:43;98191.47;;;16.54;81.34
68948;BME280;55996;49.546;7.400;2023-07-02T04:41:09;98196.53;;;16.57;81.53
68948;BME280;55996;49.546;7.400;2023-07-02T04:43:35;98193.78;;;16.59;80.68
68948;BME280;55996;49.546;7.400;2023-07-02T04:46:01;98188.88;;;16.67;81.39
68948;BME280;55996;49.546;7.400;2023-07-02T04:48:27;98184.66;;;16.65;81.60
68948;BME280;55996;49.546;7.400;2023-07-02T04:50:52;98193.19;;;16.68;81.37
68948;BME280;55996;49.546;7.400;2023-07-02T04:53:20;98197.31;;;16.72;81.52
68948;BME280;55996;49.546;7.400;2023-07-02T04:55:45;98196.78;;;16.94;80.70
68948;BME280;55996;49.546;7.400;2023-07-02T04:58:11;98197.41;;;16.98;80.20
68948;BME280;55996;49.546;7.400;2023-07-02T05:00:36;98196.38;;;17.14;79.65
68948;BME280;55996;49.546;7.400;2023-07-02T05:03:03;98203.13;;;17.18;80.02
68948;BME280;55996;49.546;7.400;2023-07-02T05:05:28;98204.28;;;17.26;79.44
68948;BME280;55996;49.546;7.400;2023-07-02T05:07:54;98197.63;;;17.34;79.66
68948;BME280;55996;49.546;7.400;2023-07-02T05:10:20;98204.41;;;17.38;79.18
68948;BME280;55996;49.546;7.400;2023-07-02T05:12:46;98208.41;;;17.18;79.15
68948;BME280;55996;49.546;7.400;2023-07-02T05:15:11;98202.41;;;17.41;79.13
68948;BME280;55996;49.546;7.400;2023-07-02T05:17:37;98212.44;;;17.23;80.16
68948;BME280;55996;49.546;7.400;2023-07-02T05:20:03;98217.94;;;17.33;80.30
68948;BME280;55996;49.546;7.400;2023-07-02T05:22:29;98216.78;;;17.37;78.84
68948;BME280;55996;49.546;7.400;2023-07-02T05:24:55;98216.13;;;17.34;78.89
68948;BME280;55996;49.546;7.400;2023-07-02T05:27:22;98211.06;;;17.69;78.18
68948;BME280;55996;49.546;7.400;2023-07-02T05:29:47;98212.75;;;17.70;78.63
68948;BME280;55996;49.546;7.400;2023-07-02T05:32:13;98213.31;;;18.13;76.30
68948;BME280;55996;49.546;7.400;2023-07-02T05:34:38;98209.03;;;18.36;74.45
68948;BME280;55996;49.546;7.400;2023-07-02T05:37:05;98222.66;;;18.43;74.32
68948;BME280;55996;49.546;7.400;2023-07-02T05:39:30;98224.03;;;17.98;76.06
68948;BME280;55996;49.546;7.400;2023-07-02T05:41:56;98212.75;;;17.96;76.41
68948;BME280;55996;49.546;7.400;2023-07-02T05:44:21;98214.00;;;17.78;77.07
68948;BME280;55996;49.546;7.400;2023-07-02T05:46:47;98224.34;;;18.06;76.68
68948;BME280;55996;49.546;7.400;2023-07-02T05:49:12;98218.06;;;18.20;77.01
68948;BME280;55996;49.546;7.400;2023-07-02T05:51:38;98210.44;;;18.16;75.02
68948;BME280;55996;49.546;7.400;2023-07-02T05:54:03;98214.09;;;18.39;75.33
68948;BME280;55996;49.546;7.400;2023-07-02T05:56:29;98220.75;;;18.45;74.33
68948;BME280;55996;49.546;7.400;2023-07-02T05:58:54;98218.69;;;18.73;74.56
68948;BME280;55996;49.546;7.400;2023-07-02T06:01:19;98218.41;;;18.40;74.22
68948;BME280;55996;49.546;7.400;2023-07-02T06:03:45;98224.28;;;18.57;74.51
68948;BME280;55996;49.546;7.400;2023-07-02T06:06:11;98223.94;;;18.61;74.02
68948;BME280;55996;49.546;7.400;2023-07-02T06:08:37;98224.34;;;18.44;74.33
68948;BME280;55996;49.546;7.400;2023-07-02T06:11:02;98234.81;;;18.69;72.11
68948;BME280;55996;49.546;7.400;2023-07-02T06:13:27;98235.31;;;18.75;72.28
68948;BME280;55996;49.546;7.400;2023-07-02T06:15:53;98232.38;;;18.66;73.40
68948;BME280;55996;49.546;7.400;2023-07-02T06:18:18;98232.94;;;19.07;71.85
68948;BME280;55996;49.546;7.400;2023-07-02T06:20:46;98238.06;;;19.33;70.29
68948;BME280;55996;49.546;7.400;2023-07-02T06:23:11;98238.72;;;19.12;70.81
68948;BME280;55996;49.546;7.400;2023-07-02T06:25:36;98242.97;;;19.26;70.79
68948;BME280;55996;49.546;7.400;2023-07-02T06:28:02;98247.13;;;19.42;69.70
68948;BME280;55996;49.546;7.400;2023-07-02T06:30:27;98237.00;;;19.35;69.58
68948;BME280;55996;49.546;7.400;2023-07-02T06:32:54;98246.78;;;19.58;69.78
68948;BME280;55996;49.546;7.400;2023-07-02T06:35:20;98248.88;;;19.88;66.02
68948;BME280;55996;49.546;7.400;2023-07-02T06:37:45;98233.88;;;20.32;66.19
68948;BME280;55996;49.546;7.400;2023-07-02T06:40:11;98244.44;;;20.67;65.02
68948;BME280;55996;49.546;7.400;2023-07-02T06:42:36;98253.56;;;20.30;63.99
68948;BME280;55996;49.546;7.400;2023-07-02T06:45:03;98254.03;;;20.24;65.75
68948;BME280;55996;49.546;7.400;2023-07-02T06:47:28;98237.41;;;19.76;67.02
68948;BME280;55996;49.546;7.400;2023-07-02T06:49:54;98242.34;;;20.15;67.28
68948;BME280;55996;49.546;7.400;2023-07-02T06:52:19;98250.25;;;20.60;64.45
68948;BME280;55996;49.546;7.400;2023-07-02T06:54:45;98251.91;;;20.61;62.90
68948;BME280;55996;49.546;7.400;2023-07-02T06:57:12;98250.25;;;20.60;64.94
68948;BME280;55996;49.546;7.400;2023-07-02T06:59:38;98253.44;;;20.20;66.43
68948;BME280;55996;49.546;7.400;2023-07-02T07:02:03;98256.69;;;20.35;65.80
68948;BME280;55996;49.546;7.400;2023-07-02T07:04:29;98255.34;;;20.41;64.63
68948;BME280;55996;49.546;7.400;2023-07-02T07:06:54;98237.56;;;20.53;65.27
68948;BME280;55996;49.546;7.400;2023-07-02T07:09:22;98249.69;;;20.89;62.76
68948;BME280;55996;49.546;7.400;2023-07-02T07:11:48;98244.69;;;20.96;63.78
68948;BME280;55996;49.546;7.400;2023-07-02T07:14:13;98256.94;;;20.87;64.29
68948;BME280;55996;49.546;7.400;2023-07-02T07:16:39;98247.13;;;21.20;60.84
68948;BME280;55996;49.546;7.400;2023-07-02T07:19:05;98252.22;;;21.12;61.40
68948;BME280;55996;49.546;7.400;2023-07-02T07:21:31;98249.91;;;21.19;60.07
68948;BME280;55996;49.546;7.400;2023-07-02T07:23:56;98248.72;;;21.54;59.80
68948;BME280;55996;49.546;7.400;2023-07-02T07:26:22;98244.81;;;21.79;58.33
68948;BME280;55996;49.546;7.400;2023-07-02T07:28:47;98243.56;;;21.52;59.24
68948;BME280;55996;49.546;7.400;2023-07-02T07:31:13;98239.53;;;21.37;59.10
68948;BME280;55996;49.546;7.400;2023-07-02T07:33:38;98231.78;;;21.76;58.41
68948;BME280;55996;49.546;7.400;2023-07-02T07:36:04;98248.47;;;21.57;58.44
68948;BME280;55996;49.546;7.400;2023-07-02T07:38:29;98259.19;;;21.67;56.54
68948;BME280;55996;49.546;7.400;2023-07-02T07:40:55;98253.28;;;21.21;58.45
68948;BME280;55996;49.546;7.400;2023-07-02T07:43:20;98258.19;;;21.04;59.00
68948;BME280;55996;49.546;7.400;2023-07-02T07:45:46;98257.78;;;20.88;59.97
68948;BME280;55996;49.546;7.400;2023-07-02T07:48:11;98263.22;;;21.40;59.27
68948;BME280;55996;49.546;7.400;2023-07-02T07:50:37;98253.28;;;21.63;58.33
68948;BME280;55996;49.546;7.400;2023-07-02T07:53:02;98253.25;;;21.84;56.82
68948;BME280;55996;49.546;7.400;2023-07-02T07:55:28;98254.25;;;21.83;57.53
68948;BME280;55996;49.546;7.400;2023-07-02T07:57:53;98253.06;;;22.07;55.92
68948;BME280;55996;49.546;7.400;2023-07-02T08:00:19;98256.34;;;21.58;55.95
68948;BME280;55996;49.546;7.400;2023-07-02T08:02:45;98265.56;;;21.85;56.64
68948;BME280;55996;49.546;7.400;2023-07-02T08:05:11;98257.97;;;21.50;56.85
68948;BME280;55996;49.546;7.400;2023-07-02T08:07:39;98251.38;;;22.06;54.54
68948;BME280;55996;49.546;7.400;2023-07-02T08:10:05;98254.25;;;22.24;54.49
68948;BME280;55996;49.546;7.400;2023-07-02T08:12:33;98256.78;;;22.76;53.81
68948;BME280;55996;49.546;7.400;2023-07-02T08:14:58;98258.41;;;22.67;51.62
68948;BME280;55996;49.546;7.400;2023-07-02T08:17:24;98255.06;;;22.55;51.29
68948;BME280;55996;49.546;7.400;2023-07-02T08:19:49;98250.03;;;23.11;50.59
68948;BME280;55996;49.546;7.400;2023-07-02T08:22:15;98257.31;;;23.09;51.25
68948;BME280;55996;49.546;7.400;2023-07-02T08:24:40;98263.25;;;23.23;50.26
68948;BME280;55996;49.546;7.400;2023-07-02T08:27:06;98258.06;;;23.31;50.63
68948;BME280;55996;49.546;7.400;2023-07-02T08:29:32;98261.28;;;23.25;50.08
68948;BME280;55996;49.546;7.400;2023-07-02T08:31:58;98263.78;;;22.97;51.19
68948;BME280;55996;49.546;7.400;2023-07-02T08:34:23;98262.38;;;22.73;51.28
68948;BME280;55996;49.546;7.400;2023-07-02T08:36:49;98262.78;;;22.78;50.29
68948;BME280;55996;49.546;7.400;2023-07-02T08:39:16;98263.06;;;23.44;50.93
68948;BME280;55996;49.546;7.400;2023-07-02T08:41:46;98260.00;;;23.29;51.11
68948;BME280;55996;49.546;7.400;2023-07-02T08:44:12;98260.13;;;22.98;50.29
68948;BME280;55996;49.546;7.400;2023-07-02T08:46:39;98272.22;;;23.21;52.92
68948;BME280;55996;49.546;7.400;2023-07-02T08:49:06;98275.03;;;23.30;50.48
68948;BME280;55996;49.546;7.400;2023-07-02T08:51:32;98266.59;;;22.95;50.86
68948;BME280;55996;49.546;7.400;2023-07-02T08:53:57;98272.91;;;23.04;50.09
68948;BME280;55996;49.546;7.400;2023-07-02T08:56:23;98291.94;;;22.60;50.78
68948;BME280;55996;49.546;7.400;2023-07-02T08:58:48;98280.09;;;22.02;52.32
68948;BME280;55996;49.546;7.400;2023-07-02T09:01:14;98286.75;;;22.28;52.90
68948;BME280;55996;49.546;7.400;2023-07-02T09:03:40;98288.47;;;21.98;52.84
68948;BME280;55996;49.546;7.400;2023-07-02T09:06:07;98280.47;;;22.89;53.20
68948;BME280;55996;49.546;7.400;2023-07-02T09:08:34;98274.91;;;23.79;51.28
68948;BME280;55996;49.546;7.400;2023-07-02T09:11:10;98265.66;;;23.83;49.88
68948;BME280;55996;49.546;7.400;2023-07-02T09:13:48;98276.81;;;23.59;47.92
68948;BME280;55996;49.546;7.400;2023-07-02T09:16:44;98267.06;;;23.77;47.33
68948;BME280;55996;49.546;7.400;2023-07-02T09:19:09;98274.53;;;23.64;47.57
68948;BME280;55996;49.546;7.400;2023-07-02T09:21:53;98273.47;;;24.04;47.41
68948;BME280;55996;49.546;7.400;2023-07-02T09:24:23;98278.31;;;23.71;47.30
68948;BME280;55996;49.546;7.400;2023-07-02T09:26:52;98277.53;;;23.02;48.72
68948;BME280;55996;49.546;7.400;2023-07-02T09:29:22;98274.81;;;23.71;49.24
68948;BME280;55996;49.546;7.400;2023-07-02T09:31:50;98280.22;;;23.21;46.53
68948;BME280;55996;49.546;7.400;2023-07-02T09:34:16;98287.06;;;23.53;46.81
68948;BME280;55996;49.546;7.400;2023-07-02T09:36:43;98282.88;;;23.31;46.68
68948;BME280;55996;49.546;7.400;2023-07-02T09:39:12;98277.50;;;22.92;47.41
68948;BME280;55996;49.546;7.400;2023-07-02T09:41:40;98294.09;;;23.15;47.72
68948;BME280;55996;49.546;7.400;2023-07-02T09:44:07;98299.81;;;23.79;46.90
68948;BME280;55996;49.546;7.400;2023-07-02T09:46:35;98287.59;;;23.67;45.88
68948;BME280;55996;49.546;7.400;2023-07-02T09:49:02;98287.22;;;23.52;46.27
68948;BME280;55996;49.546;7.400;2023-07-02T09:51:28;98285.00;;;23.95;46.78
68948;BME280;55996;49.546;7.400;2023-07-02T09:53:54;98268.56;;;24.27;45.84
68948;BME280;55996;49.546;7.400;2023-07-02T09:56:20;98276.53;;;24.37;42.97
68948;BME280;55996;49.546;7.400;2023-07-02T09:58:46;98283.00;;;24.62;42.85
68948;BME280;55996;49.546;7.400;2023-07-02T10:01:12;98279.97;;;25.48;42.32
68948;BME280;55996;49.546;7.400;2023-07-02T10:03:37;98286.72;;;25.52;41.74
68948;BME280;55996;49.546;7.400;2023-07-02T10:06:06;98278.38;;;25.19;42.88
68948;BME280;55996;49.546;7.400;2023-07-02T10:08:32;98286.03;;;25.13;42.77
68948;BME280;55996;49.546;7.400;2023-07-02T10:11:11;98276.25;;;24.86;41.78
68948;BME280;55996;49.546;7.400;2023-07-02T10:13:41;98277.31;;;23.92;43.26
68948;BME280;55996;49.546;7.400;2023-07-02T10:16:07;98290.16;;;23.49;44.47
68948;BME280;55996;49.546;7.400;2023-07-02T10:18:32;98293.34;;;23.72;45.71
68948;BME280;55996;49.546;7.400;2023-07-02T10:20:59;98282.47;;;24.59;43.87
68948;BME280;55996;49.546;7.400;2023-07-02T10:23:34;98276.63;;;25.27;42.70
68948;BME280;55996;49.546;7.400;2023-07-02T10:26:19;98273.91;;;26.16;42.38
68948;BME280;55996;49.546;7.400;2023-07-02T10:28:58;98276.03;;;26.47;41.04
68948;BME280;55996;49.546;7.400;2023-07-02T10:31:23;98271.97;;;26.94;38.36
68948;BME280;55996;49.546;7.400;2023-07-02T10:33:49;98264.59;;;27.29;38.29
68948;BME280;55996;49.546;7.400;2023-07-02T10:36:22;98272.16;;;27.42;38.24
68948;BME280;55996;49.546;7.400;2023-07-02T10:38:49;98270.06;;;25.92;39.24
68948;BME280;55996;49.546;7.400;2023-07-02T10:41:30;98277.97;;;26.02;39.40
68948;BME280;55996;49.546;7.400;2023-07-02T10:44:08;98270.75;;;26.29;40.80
68948;BME280;55996;49.546;7.400;2023-07-02T10:46:42;98275.16;;;27.06;39.76
68948;BME280;55996;49.546;7.400;2023-07-02T10:49:08;98253.53;;;27.41;39.01
68948;BME280;55996;49.546;7.400;2023-07-02T10:51:34;98275.81;;;27.00;38.13
68948;BME280;55996;49.546;7.400;2023-07-02T10:54:01;98268.13;;;26.37;39.26
68948;BME280;55996;49.546;7.400;2023-07-02T10:56:28;98271.84;;;25.84;39.02
68948;BME280;55996;49.546;7.400;2023-07-02T10:58:54;98290.03;;;25.09;40.62
68948;BME280;55996;49.546;7.400;2023-07-02T11:04:10;98283.13;;;24.43;43.63
68948;BME280;55996;49.546;7.400;2023-07-02T11:06:35;98284.66;;;24.45;43.42
68948;BME280;55996;49.546;7.400;2023-07-02T11:09:01;98287.72;;;24.50;43.96
68948;BME280;55996;49.546;7.400;2023-07-02T11:11:26;98277.03;;;24.78;43.54
68948;BME280;55996;49.546;7.400;2023-07-02T11:13:52;98276.34;;;24.94;44.04
68948;BME280;55996;49.546;7.400;2023-07-02T11:16:25;98278.09;;;25.40;42.39
68948;BME280;55996;49.546;7.400;2023-07-02T11:19:06;98272.19;;;26.58;42.02
68948;BME280;55996;49.546;7.400;2023-07-02T11:21:35;98264.00;;;26.68;40.57
68948;BME280;55996;49.546;7.400;2023-07-02T11:24:01;98255.75;;;26.53;40.15
68948;BME280;55996;49.546;7.400;2023-07-02T11:26:37;98264.25;;;25.71;40.77
68948;BME280;55996;49.546;7.400;2023-07-02T11:29:03;98262.53;;;25.61;41.27
68948;BME280;55996;49.546;7.400;2023-07-02T11:31:28;98261.00;;;25.93;41.25
68948;BME280;55996;49.546;7.400;2023-07-02T11:33:54;98265.72;;;25.65;41.56
68948;BME280;55996;49.546;7.400;2023-07-02T11:36:21;98263.84;;;25.92;41.25
68948;BME280;55996;49.546;7.400;2023-07-02T11:38:49;98273.03;;;25.19;42.39
68948;BME280;55996;49.546;7.400;2023-07-02T11:41:15;98264.22;;;25.26;42.75
68948;BME280;55996;49.546;7.400;2023-07-02T11:43:40;98269.78;;;25.77;42.86
68948;BME280;55996;49.546;7.400;2023-07-02T11:46:05;98269.78;;;26.04;41.04
68948;BME280;55996;49.546;7.400;2023-07-02T11:48:31;98263.59;;;25.77;41.31
68948;BME280;55996;49.546;7.400;2023-07-02T11:50:56;98261.47;;;25.81;40.73
68948;BME280;55996;49.546;7.400;2023-07-02T11:53:22;98280.47;;;25.43;41.78
68948;BME280;55996;49.546;7.400;2023-07-02T11:55:47;98279.31;;;25.09;42.04
68948;BME280;55996;49.546;7.400;2023-07-02T11:58:13;98277.31;;;24.75;42.63
68948;BME280;55996;49.546;7.400;2023-07-02T12:00:38;98277.19;;;24.95;43.30
68948;BME280;55996;49.546;7.400;2023-07-02T12:03:03;98273.16;;;25.35;42.15
68948;BME280;55996;49.546;7.400;2023-07-02T12:05:29;98257.97;;;26.15;41.17
68948;BME280;55996;49.546;7.400;2023-07-02T12:07:54;98252.50;;;26.84;38.96
68948;BME280;55996;49.546;7.400;2023-07-02T12:10:20;98257.06;;;26.40;39.21
68948;BME280;55996;49.546;7.400;2023-07-02T12:12:45;98261.31;;;26.60;38.12
68948;BME280;55996;49.546;7.400;2023-07-02T12:15:11;98256.09;;;26.50;39.22
68948;BME280;55996;49.546;7.400;2023-07-02T12:17:36;98265.59;;;26.44;39.65
68948;BME280;55996;49.546;7.400;2023-07-02T12:20:02;98263.25;;;27.17;38.90
68948;BME280;55996;49.546;7.400;2023-07-02T12:22:28;98249.53;;;28.09;37.20
68948;BME280;55996;49.546;7.400;2023-07-02T12:24:54;98247.81;;;28.16;38.52
68948;BME280;55996;49.546;7.400;2023-07-02T12:27:21;98252.78;;;28.36;36.42
68948;BME280;55996;49.546;7.400;2023-07-02T12:29:47;98246.28;;;28.85;34.47
68948;BME280;55996;49.546;7.400;2023-07-02T12:32:16;98244.13;;;29.04;34.42
68948;BME280;55996;49.546;7.400;2023-07-02T12:34:41;98249.03;;;28.06;35.26
68948;BME280;55996;49.546;7.400;2023-07-02T12:37:07;98255.50;;;28.28;35.81
68948;BME280;55996;49.546;7.400;2023-07-02T12:39:32;98254.88;;;28.17;36.03
68948;BME280;55996;49.546;7.400;2023-07-02T12:41:57;98253.66;;;27.72;35.90
68948;BME280;55996;49.546;7.400;2023-07-02T12:44:23;98252.19;;;27.36;36.76
68948;BME280;55996;49.546;7.400;2023-07-02T12:46:49;98250.06;;;27.88;36.84
68948;BME280;55996;49.546;7.400;2023-07-02T12:49:15;98262.59;;;27.23;36.27
68948;BME280;55996;49.546;7.400;2023-07-02T12:51:40;98260.56;;;27.50;36.94
68948;BME280;55996;49.546;7.400;2023-07-02T12:54:05;98272.66;;;27.46;37.58
68948;BME280;55996;49.546;7.400;2023-07-02T12:56:31;98279.50;;;27.07;38.29
68948;BME280;55996;49.546;7.400;2023-07-02T12:58:56;98266.59;;;27.19;37.23
68948;BME280;55996;49.546;7.400;2023-07-02T13:01:22;98260.56;;;27.66;38.42